sensor_id;sensor_type;location;lat;lon;timestamp;temperature;humidity
8664;DHT22;4369;47.842;13.096;2024-01-30T00:01:50;1.20;99.90
8664;DHT22;4369;47.842;13.096;2024-01-30T00:04:17;1.20;99.90
8664;DHT22;4369;47.842;13.096;2024-01-30T00:06:44;1.10;1.00
8664;DHT22;4369;47.842;13.096;2024-01-30T00:09:11;1.10;85.40
8664;DHT22;4369;47.842;13.096;2024-01-30T00:11:40;1.10;99.90
8664;DHT22;4369;47.842;13.096;2024-01-30T00:14:07;1.10;12.80
8664;DHT22;4369;47.842;13.096;2024-01-30T00:16:34;1.10;60.10
8664;DHT22;4369;47.842;13.096;2024-01-30T00:19:01;1.10;1.00
8664;DHT22;4369;47.842;13.096;2024-01-30T00:21:29;1.10;1.00
8664;DHT22;4369;47.842;13.096;2024-01-30T00:23:56;1.10;99.90
8664;DHT22;4369;47.842;13.096;2024-01-30T00:26:23;1.10;59.80
8664;DHT22;4369;47.842;13.096;2024-01-30T00:28:51;1.10;99.90
8664;DHT22;4369;47.842;13.096;2024-01-30T00:31:18;1.10;1.00
8664;DHT22;4369;47.842;13.096;2024-01-30T00:33:45;1.20;1.00
8664;DHT22;4369;47.842;13.096;2024-01-30T00:36:12;1.10;99.90
8664;DHT22;4369;47.842;13.096;2024-01-30T00:38:39;1.10;1.00
8664;DHT22;4369;47.842;13.096;2024-01-30T00:41:07;1.10;1.70
8664;DHT22;4369;47.842;13.096;2024-01-30T00:43:34;1.00;99.90
8664;DHT22;4369;47.842;13.096;2024-01-30T00:46:02;1.00;1.00
8664;DHT22;4369;47.842;13.096;2024-01-30T00:48:29;1.00;1.00
8664;DHT22;4369;47.842;13.096;2024-01-30T00:50:56;1.00;1.00
8664;DHT22;4369;47.842;13.096;2024-01-30T00:53:23;1.00;41.30
8664;DHT22;4369;47.842;13.096;2024-01-30T00:55:50;1.00;99.90
8664;DHT22;4369;47.842;13.096;2024-01-30T00:58:17;1.00;99.90
8664;DHT22;4369;47.842;13.096;2024-01-30T01:00:44;1.00;1.00
8664;DHT22;4369;47.842;13.096;2024-01-30T01:03:13;0.90;1.00
8664;DHT22;4369;47.842;13.096;2024-01-30T01:05:40;0.90;1.00
8664;DHT22;4369;47.842;13.096;2024-01-30T01:08:07;0.90;99.90
8664;DHT22;4369;47.842;13.096;2024-01-30T01:10:34;0.90;99.90
8664;DHT22;4369;47.842;13.096;2024-01-30T01:13:01;0.80;99.90
8664;DHT22;4369;47.842;13.096;2024-01-30T01:15:28;0.80;99.90
8664;DHT22;4369;47.842;13.096;2024-01-30T01:17:57;0.80;99.90
8664;DHT22;4369;47.842;13.096;2024-01-30T01:20:25;0.70;99.90
8664;DHT22;4369;47.842;13.096;2024-01-30T01:22:52;0.80;99.90
8664;DHT22;4369;47.842;13.096;2024-01-30T01:25:19;0.80;1.00
8664;DHT22;4369;47.842;13.096;2024-01-30T01:27:46;0.70;1.00
8664;DHT22;4369;47.842;13.096;2024-01-30T01:30:17;0.60;1.00
8664;DHT22;4369;47.842;13.096;2024-01-30T01:32:47;0.70;1.00
8664;DHT22;4369;47.842;13.096;2024-01-30T01:35:21;0.70;1.00
8664;DHT22;4369;47.842;13.096;2024-01-30T01:37:49;0.60;1.00
8664;DHT22;4369;47.842;13.096;2024-01-30T01:40:21;0.60;1.00
8664;DHT22;4369;47.842;13.096;2024-01-30T01:42:49;0.60;1.00
8664;DHT22;4369;47.842;13.096;2024-01-30T01:45:16;0.60;1.00
8664;DHT22;4369;47.842;13.096;2024-01-30T01:47:44;0.60;1.00
8664;DHT22;4369;47.842;13.096;2024-01-30T01:50:12;0.60;1.00
8664;DHT22;4369;47.842;13.096;2024-01-30T01:52:40;0.70;1.00
8664;DHT22;4369;47.842;13.096;2024-01-30T01:55:10;0.60;1.00
8664;DHT22;4369;47.842;13.096;2024-01-30T01:57:38;0.70;1.00
8664;DHT22;4369;47.842;13.096;2024-01-30T02:00:06;0.60;1.00
8664;DHT22;4369;47.842;13.096;2024-01-30T02:02:35;0.60;1.00
8664;DHT22;4369;47.842;13.096;2024-01-30T02:05:03;0.50;1.00
8664;DHT22;4369;47.842;13.096;2024-01-30T02:07:30;0.50;1.00
8664;DHT22;4369;47.842;13.096;2024-01-30T02:09:57;0.60;1.00
8664;DHT22;4369;47.842;13.096;2024-01-30T02:12:25;0.50;1.00
8664;DHT22;4369;47.842;13.096;2024-01-30T02:14:52;0.50;1.00
8664;DHT22;4369;47.842;13.096;2024-01-30T02:17:20;0.50;1.00
8664;DHT22;4369;47.842;13.096;2024-01-30T02:19:48;0.40;1.00
8664;DHT22;4369;47.842;13.096;2024-01-30T02:22:17;0.40;1.00
8664;DHT22;4369;47.842;13.096;2024-01-30T02:24:44;0.40;1.00
8664;DHT22;4369;47.842;13.096;2024-01-30T02:27:11;0.40;1.00
8664;DHT22;4369;47.842;13.096;2024-01-30T02:29:38;0.30;1.00
8664;DHT22;4369;47.842;13.096;2024-01-30T02:32:06;0.20;1.00
8664;DHT22;4369;47.842;13.096;2024-01-30T02:34:33;0.30;1.00
8664;DHT22;4369;47.842;13.096;2024-01-30T02:37:00;0.30;1.00
8664;DHT22;4369;47.842;13.096;2024-01-30T02:39:28;0.40;1.00
8664;DHT22;4369;47.842;13.096;2024-01-30T02:41:55;0.40;1.00
8664;DHT22;4369;47.842;13.096;2024-01-30T02:44:22;0.50;1.00
8664;DHT22;4369;47.842;13.096;2024-01-30T02:46:49;0.50;1.00
8664;DHT22;4369;47.842;13.096;2024-01-30T02:49:16;0.50;1.00
8664;DHT22;4369;47.842;13.096;2024-01-30T02:51:43;0.40;1.00
8664;DHT22;4369;47.842;13.096;2024-01-30T02:54:10;0.50;1.00
8664;DHT22;4369;47.842;13.096;2024-01-30T02:56:38;0.50;1.00
8664;DHT22;4369;47.842;13.096;2024-01-30T02:59:05;0.50;1.00
8664;DHT22;4369;47.842;13.096;2024-01-30T03:01:32;0.50;1.00
8664;DHT22;4369;47.842;13.096;2024-01-30T03:03:59;0.50;1.00
8664;DHT22;4369;47.842;13.096;2024-01-30T03:06:26;0.50;1.00
8664;DHT22;4369;47.842;13.096;2024-01-30T03:08:53;0.50;1.00
8664;DHT22;4369;47.842;13.096;2024-01-30T03:11:20;0.50;1.00
8664;DHT22;4369;47.842;13.096;2024-01-30T03:13:48;0.40;1.00
8664;DHT22;4369;47.842;13.096;2024-01-30T03:16:15;0.40;1.00
8664;DHT22;4369;47.842;13.096;2024-01-30T03:18:42;0.40;1.00
8664;DHT22;4369;47.842;13.096;2024-01-30T03:21:09;0.40;1.00
8664;DHT22;4369;47.842;13.096;2024-01-30T03:23:36;0.30;1.00
8664;DHT22;4369;47.842;13.096;2024-01-30T03:26:03;0.40;1.00
8664;DHT22;4369;47.842;13.096;2024-01-30T03:28:32;0.40;1.00
8664;DHT22;4369;47.842;13.096;2024-01-30T03:31:01;0.40;1.00
8664;DHT22;4369;47.842;13.096;2024-01-30T03:33:28;0.30;1.00
8664;DHT22;4369;47.842;13.096;2024-01-30T03:35:55;0.20;1.00
8664;DHT22;4369;47.842;13.096;2024-01-30T03:38:21;0.20;1.00
8664;DHT22;4369;47.842;13.096;2024-01-30T03:40:48;0.10;1.00
8664;DHT22;4369;47.842;13.096;2024-01-30T03:43:15;0.20;1.00
8664;DHT22;4369;47.842;13.096;2024-01-30T03:45:42;0.20;1.00
8664;DHT22;4369;47.842;13.096;2024-01-30T03:48:11;0.20;1.00
8664;DHT22;4369;47.842;13.096;2024-01-30T03:50:38;0.10;1.00
8664;DHT22;4369;47.842;13.096;2024-01-30T03:53:04;0.20;99.90
8664;DHT22;4369;47.842;13.096;2024-01-30T03:55:31;0.10;99.90
8664;DHT22;4369;47.842;13.096;2024-01-30T03:57:58;0.10;99.90
8664;DHT22;4369;47.842;13.096;2024-01-30T04:00:25;0.00;67.50
8664;DHT22;4369;47.842;13.096;2024-01-30T04:02:52;0.00;28.60
8664;DHT22;4369;47.842;13.096;2024-01-30T04:05:21;0.00;71.90
8664;DHT22;4369;47.842;13.096;2024-01-30T04:07:48;0.00;99.90
8664;DHT22;4369;47.842;13.096;2024-01-30T04:10:15;0.10;99.90
8664;DHT22;4369;47.842;13.096;2024-01-30T04:12:42;0.10;99.90
8664;DHT22;4369;47.842;13.096;2024-01-30T04:15:09;0.10;99.90
8664;DHT22;4369;47.842;13.096;2024-01-30T04:17:36;0.20;99.90
8664;DHT22;4369;47.842;13.096;2024-01-30T04:20:04;0.20;99.90
8664;DHT22;4369;47.842;13.096;2024-01-30T04:22:32;0.20;99.90
8664;DHT22;4369;47.842;13.096;2024-01-30T04:24:59;0.10;99.90
8664;DHT22;4369;47.842;13.096;2024-01-30T04:27:26;0.20;99.90
8664;DHT22;4369;47.842;13.096;2024-01-30T04:29:53;0.10;99.90
8664;DHT22;4369;47.842;13.096;2024-01-30T04:32:20;0.10;1.00
8664;DHT22;4369;47.842;13.096;2024-01-30T04:34:47;0.00;1.00
8664;DHT22;4369;47.842;13.096;2024-01-30T04:37:14;0.00;1.00
8664;DHT22;4369;47.842;13.096;2024-01-30T04:39:42;0.10;1.00
8664;DHT22;4369;47.842;13.096;2024-01-30T04:42:09;0.10;1.00
8664;DHT22;4369;47.842;13.096;2024-01-30T04:44:36;0.10;1.00
8664;DHT22;4369;47.842;13.096;2024-01-30T04:47:04;0.10;1.00
8664;DHT22;4369;47.842;13.096;2024-01-30T04:49:31;0.10;1.00
8664;DHT22;4369;47.842;13.096;2024-01-30T04:51:58;0.10;1.00
8664;DHT22;4369;47.842;13.096;2024-01-30T04:54:25;0.20;1.00
8664;DHT22;4369;47.842;13.096;2024-01-30T04:56:54;0.20;1.00
8664;DHT22;4369;47.842;13.096;2024-01-30T04:59:20;0.20;1.00
8664;DHT22;4369;47.842;13.096;2024-01-30T05:01:47;0.10;1.00
8664;DHT22;4369;47.842;13.096;2024-01-30T05:04:14;0.10;1.00
8664;DHT22;4369;47.842;13.096;2024-01-30T05:06:41;0.10;1.00
8664;DHT22;4369;47.842;13.096;2024-01-30T05:09:08;0.10;1.00
8664;DHT22;4369;47.842;13.096;2024-01-30T05:11:37;0.10;1.00
8664;DHT22;4369;47.842;13.096;2024-01-30T05:14:06;0.00;1.00
8664;DHT22;4369;47.842;13.096;2024-01-30T05:16:33;0.10;1.00
8664;DHT22;4369;47.842;13.096;2024-01-30T05:19:00;0.00;1.00
8664;DHT22;4369;47.842;13.096;2024-01-30T05:21:27;0.00;1.00
8664;DHT22;4369;47.842;13.096;2024-01-30T05:23:54;0.00;1.00
8664;DHT22;4369;47.842;13.096;2024-01-30T05:26:21;0.00;1.00
8664;DHT22;4369;47.842;13.096;2024-01-30T05:28:48;0.00;99.90
8664;DHT22;4369;47.842;13.096;2024-01-30T05:31:17;0.10;99.90
8664;DHT22;4369;47.842;13.096;2024-01-30T05:33:44;0.00;99.90
8664;DHT22;4369;47.842;13.096;2024-01-30T05:36:12;-0.10;99.90
8664;DHT22;4369;47.842;13.096;2024-01-30T05:38:39;-0.20;99.90
8664;DHT22;4369;47.842;13.096;2024-01-30T05:41:06;-0.10;99.90
8664;DHT22;4369;47.842;13.096;2024-01-30T05:43:33;-0.10;99.90
8664;DHT22;4369;47.842;13.096;2024-01-30T05:46:00;-0.10;99.90
8664;DHT22;4369;47.842;13.096;2024-01-30T05:48:28;-0.10;99.90
8664;DHT22;4369;47.842;13.096;2024-01-30T05:50:56;-0.20;99.90
8664;DHT22;4369;47.842;13.096;2024-01-30T05:53:23;-0.20;99.90
8664;DHT22;4369;47.842;13.096;2024-01-30T05:55:50;-0.10;99.90
8664;DHT22;4369;47.842;13.096;2024-01-30T05:58:17;-0.10;99.90
8664;DHT22;4369;47.842;13.096;2024-01-30T06:00:44;-0.10;99.90
8664;DHT22;4369;47.842;13.096;2024-01-30T06:03:11;-0.10;1.00
8664;DHT22;4369;47.842;13.096;2024-01-30T06:05:39;-0.10;1.00
8664;DHT22;4369;47.842;13.096;2024-01-30T06:08:07;-0.10;1.00
8664;DHT22;4369;47.842;13.096;2024-01-30T06:10:34;-0.10;99.90
8664;DHT22;4369;47.842;13.096;2024-01-30T06:13:01;0.00;99.90
8664;DHT22;4369;47.842;13.096;2024-01-30T06:15:28;0.00;99.90
8664;DHT22;4369;47.842;13.096;2024-01-30T06:17:56;0.10;99.90
8664;DHT22;4369;47.842;13.096;2024-01-30T06:20:23;0.10;1.00
8664;DHT22;4369;47.842;13.096;2024-01-30T06:22:51;-0.10;60.10
8664;DHT22;4369;47.842;13.096;2024-01-30T06:25:18;-0.10;99.90
8664;DHT22;4369;47.842;13.096;2024-01-30T06:27:45;-0.10;99.90
8664;DHT22;4369;47.842;13.096;2024-01-30T06:30:13;-0.10;1.00
8664;DHT22;4369;47.842;13.096;2024-01-30T06:32:40;-0.10;1.00
8664;DHT22;4369;47.842;13.096;2024-01-30T06:35:07;-0.10;99.90
8664;DHT22;4369;47.842;13.096;2024-01-30T06:37:36;-0.10;99.90
8664;DHT22;4369;47.842;13.096;2024-01-30T06:40:05;0.00;99.90
8664;DHT22;4369;47.842;13.096;2024-01-30T06:42:32;0.00;2.40
8664;DHT22;4369;47.842;13.096;2024-01-30T06:44:59;0.00;99.90
8664;DHT22;4369;47.842;13.096;2024-01-30T06:47:26;0.00;1.00
8664;DHT22;4369;47.842;13.096;2024-01-30T06:49:54;0.00;99.90
8664;DHT22;4369;47.842;13.096;2024-01-30T06:52:21;0.10;99.90
8664;DHT22;4369;47.842;13.096;2024-01-30T06:54:48;0.10;99.90
8664;DHT22;4369;47.842;13.096;2024-01-30T06:57:16;0.20;99.90
8664;DHT22;4369;47.842;13.096;2024-01-30T06:59:43;0.20;89.50
8664;DHT22;4369;47.842;13.096;2024-01-30T07:02:10;0.30;1.00
8664;DHT22;4369;47.842;13.096;2024-01-30T07:04:37;0.30;1.00
8664;DHT22;4369;47.842;13.096;2024-01-30T07:07:05;0.30;99.90
8664;DHT22;4369;47.842;13.096;2024-01-30T07:09:37;0.30;99.90
8664;DHT22;4369;47.842;13.096;2024-01-30T07:12:04;0.30;1.00
8664;DHT22;4369;47.842;13.096;2024-01-30T07:14:33;0.30;1.00
8664;DHT22;4369;47.842;13.096;2024-01-30T07:17:00;0.30;1.00
8664;DHT22;4369;47.842;13.096;2024-01-30T07:19:27;0.30;99.90
8664;DHT22;4369;47.842;13.096;2024-01-30T07:21:54;0.30;99.90
8664;DHT22;4369;47.842;13.096;2024-01-30T07:24:21;0.20;1.00
8664;DHT22;4369;47.842;13.096;2024-01-30T07:26:47;0.30;1.00
8664;DHT22;4369;47.842;13.096;2024-01-30T07:29:15;0.30;1.00
8664;DHT22;4369;47.842;13.096;2024-01-30T07:31:43;0.30;99.90
8664;DHT22;4369;47.842;13.096;2024-01-30T07:34:10;0.30;99.90
8664;DHT22;4369;47.842;13.096;2024-01-30T07:36:37;0.30;24.20
8664;DHT22;4369;47.842;13.096;2024-01-30T07:39:04;0.40;99.90
8664;DHT22;4369;47.842;13.096;2024-01-30T07:41:31;0.40;1.00
8664;DHT22;4369;47.842;13.096;2024-01-30T07:43:58;0.40;65.60
8664;DHT22;4369;47.842;13.096;2024-01-30T07:46:26;0.50;52.30
8664;DHT22;4369;47.842;13.096;2024-01-30T07:48:54;0.50;99.90
8664;DHT22;4369;47.842;13.096;2024-01-30T07:51:24;0.50;1.00
8664;DHT22;4369;47.842;13.096;2024-01-30T07:53:51;0.60;1.00
8664;DHT22;4369;47.842;13.096;2024-01-30T07:56:18;0.60;92.90
8664;DHT22;4369;47.842;13.096;2024-01-30T07:58:47;0.60;99.90
8664;DHT22;4369;47.842;13.096;2024-01-30T08:01:15;0.60;99.90
8664;DHT22;4369;47.842;13.096;2024-01-30T08:03:42;0.60;99.90
8664;DHT22;4369;47.842;13.096;2024-01-30T08:06:11;0.70;1.00
8664;DHT22;4369;47.842;13.096;2024-01-30T08:08:38;0.70;1.00
8664;DHT22;4369;47.842;13.096;2024-01-30T08:11:04;0.70;1.00
8664;DHT22;4369;47.842;13.096;2024-01-30T08:13:33;0.70;99.90
8664;DHT22;4369;47.842;13.096;2024-01-30T08:16:00;0.80;99.90
8664;DHT22;4369;47.842;13.096;2024-01-30T08:18:27;0.90;1.00
8664;DHT22;4369;47.842;13.096;2024-01-30T08:20:54;1.00;99.90
8664;DHT22;4369;47.842;13.096;2024-01-30T08:23:29;1.10;91.50
8664;DHT22;4369;47.842;13.096;2024-01-30T08:25:57;1.20;1.00
8664;DHT22;4369;47.842;13.096;2024-01-30T08:28:24;1.40;99.90
8664;DHT22;4369;47.842;13.096;2024-01-30T08:30:51;1.60;1.00
8664;DHT22;4369;47.842;13.096;2024-01-30T08:33:18;1.80;1.00
8664;DHT22;4369;47.842;13.096;2024-01-30T08:35:45;1.90;99.90
8664;DHT22;4369;47.842;13.096;2024-01-30T08:38:12;2.20;99.90
8664;DHT22;4369;47.842;13.096;2024-01-30T08:40:41;2.40;1.00
8664;DHT22;4369;47.842;13.096;2024-01-30T08:43:08;2.60;1.00
8664;DHT22;4369;47.842;13.096;2024-01-30T08:45:35;2.80;99.90
8664;DHT22;4369;47.842;13.096;2024-01-30T08:48:03;3.00;99.90
8664;DHT22;4369;47.842;13.096;2024-01-30T08:50:30;3.20;1.00
8664;DHT22;4369;47.842;13.096;2024-01-30T08:52:57;3.40;1.00
8664;DHT22;4369;47.842;13.096;2024-01-30T08:55:24;3.60;99.90
8664;DHT22;4369;47.842;13.096;2024-01-30T08:57:52;3.80;33.80
8664;DHT22;4369;47.842;13.096;2024-01-30T09:00:19;4.00;99.90
8664;DHT22;4369;47.842;13.096;2024-01-30T09:02:46;4.20;1.00
8664;DHT22;4369;47.842;13.096;2024-01-30T09:05:13;4.30;99.90
8664;DHT22;4369;47.842;13.096;2024-01-30T09:07:40;4.50;49.40
8664;DHT22;4369;47.842;13.096;2024-01-30T09:10:07;4.70;1.00
8664;DHT22;4369;47.842;13.096;2024-01-30T09:12:34;4.90;1.00
8664;DHT22;4369;47.842;13.096;2024-01-30T09:15:03;5.10;1.00
8664;DHT22;4369;47.842;13.096;2024-01-30T09:17:31;5.30;1.00
8664;DHT22;4369;47.842;13.096;2024-01-30T09:19:58;5.50;1.00
8664;DHT22;4369;47.842;13.096;2024-01-30T09:22:25;5.60;1.00
8664;DHT22;4369;47.842;13.096;2024-01-30T09:24:52;5.90;1.00
8664;DHT22;4369;47.842;13.096;2024-01-30T09:27:19;6.10;1.00
8664;DHT22;4369;47.842;13.096;2024-01-30T09:29:46;6.30;1.00
8664;DHT22;4369;47.842;13.096;2024-01-30T09:32:15;6.40;1.00
8664;DHT22;4369;47.842;13.096;2024-01-30T09:34:43;6.60;1.00
8664;DHT22;4369;47.842;13.096;2024-01-30T09:37:10;6.80;1.00
8664;DHT22;4369;47.842;13.096;2024-01-30T09:39:37;7.00;1.00
8664;DHT22;4369;47.842;13.096;2024-01-30T09:42:09;7.10;1.00
8664;DHT22;4369;47.842;13.096;2024-01-30T09:44:38;7.40;1.00
8664;DHT22;4369;47.842;13.096;2024-01-30T09:47:10;7.60;1.00
8664;DHT22;4369;47.842;13.096;2024-01-30T09:49:39;7.90;1.00
8664;DHT22;4369;47.842;13.096;2024-01-30T09:52:08;8.30;1.00
8664;DHT22;4369;47.842;13.096;2024-01-30T09:54:35;8.70;1.00
8664;DHT22;4369;47.842;13.096;2024-01-30T09:57:03;9.00;1.00
8664;DHT22;4369;47.842;13.096;2024-01-30T09:59:30;9.30;1.00
8664;DHT22;4369;47.842;13.096;2024-01-30T10:01:57;9.70;1.00
8664;DHT22;4369;47.842;13.096;2024-01-30T10:04:24;10.20;1.00
8664;DHT22;4369;47.842;13.096;2024-01-30T10:06:52;10.30;1.00
8664;DHT22;4369;47.842;13.096;2024-01-30T10:09:19;10.70;1.00
8664;DHT22;4369;47.842;13.096;2024-01-30T10:11:48;11.20;1.00
8664;DHT22;4369;47.842;13.096;2024-01-30T10:14:15;11.40;1.00
8664;DHT22;4369;47.842;13.096;2024-01-30T10:16:42;11.80;1.00
8664;DHT22;4369;47.842;13.096;2024-01-30T10:19:11;12.10;1.00
8664;DHT22;4369;47.842;13.096;2024-01-30T10:21:38;12.80;1.00
8664;DHT22;4369;47.842;13.096;2024-01-30T10:24:07;13.60;1.00
8664;DHT22;4369;47.842;13.096;2024-01-30T10:26:34;14.50;1.00
8664;DHT22;4369;47.842;13.096;2024-01-30T10:29:03;15.60;1.00
8664;DHT22;4369;47.842;13.096;2024-01-30T10:31:30;16.50;1.00
8664;DHT22;4369;47.842;13.096;2024-01-30T10:33:57;17.70;1.00
8664;DHT22;4369;47.842;13.096;2024-01-30T10:36:28;18.40;1.00
8664;DHT22;4369;47.842;13.096;2024-01-30T10:38:55;19.50;1.00
8664;DHT22;4369;47.842;13.096;2024-01-30T10:41:27;20.90;1.00
8664;DHT22;4369;47.842;13.096;2024-01-30T10:44:02;21.40;1.00
8664;DHT22;4369;47.842;13.096;2024-01-30T10:46:32;22.20;1.00
8664;DHT22;4369;47.842;13.096;2024-01-30T10:49:00;22.50;1.00
8664;DHT22;4369;47.842;13.096;2024-01-30T10:51:28;23.20;1.00
8664;DHT22;4369;47.842;13.096;2024-01-30T10:53:56;23.50;1.00
8664;DHT22;4369;47.842;13.096;2024-01-30T10:56:23;23.50;1.00
8664;DHT22;4369;47.842;13.096;2024-01-30T10:58:52;23.00;1.00
8664;DHT22;4369;47.842;13.096;2024-01-30T11:01:20;23.70;1.00
8664;DHT22;4369;47.842;13.096;2024-01-30T11:03:49;24.40;1.00
8664;DHT22;4369;47.842;13.096;2024-01-30T11:06:17;25.30;1.00
8664;DHT22;4369;47.842;13.096;2024-01-30T11:08:45;26.90;1.00
8664;DHT22;4369;47.842;13.096;2024-01-30T11:11:12;28.50;1.00
8664;DHT22;4369;47.842;13.096;2024-01-30T11:13:40;30.70;1.00
8664;DHT22;4369;47.842;13.096;2024-01-30T11:16:11;32.20;1.00
8664;DHT22;4369;47.842;13.096;2024-01-30T11:18:39;33.20;1.00
8664;DHT22;4369;47.842;13.096;2024-01-30T11:21:06;33.90;1.00
8664;DHT22;4369;47.842;13.096;2024-01-30T11:23:34;36.60;1.00
8664;DHT22;4369;47.842;13.096;2024-01-30T11:26:01;38.50;1.00
8664;DHT22;4369;47.842;13.096;2024-01-30T11:28:32;39.00;1.00
8664;DHT22;4369;47.842;13.096;2024-01-30T11:31:03;40.60;1.00
8664;DHT22;4369;47.842;13.096;2024-01-30T11:33:31;41.60;1.00
8664;DHT22;4369;47.842;13.096;2024-01-30T11:36:00;42.30;1.00
8664;DHT22;4369;47.842;13.096;2024-01-30T11:38:28;42.60;1.00
8664;DHT22;4369;47.842;13.096;2024-01-30T11:40:55;43.60;1.00
8664;DHT22;4369;47.842;13.096;2024-01-30T11:43:23;44.70;1.00
8664;DHT22;4369;47.842;13.096;2024-01-30T11:45:50;44.00;1.00
8664;DHT22;4369;47.842;13.096;2024-01-30T11:48:17;45.00;1.00
8664;DHT22;4369;47.842;13.096;2024-01-30T11:50:46;44.80;1.00
8664;DHT22;4369;47.842;13.096;2024-01-30T11:53:14;45.70;1.00
8664;DHT22;4369;47.842;13.096;2024-01-30T11:55:40;45.40;1.00
8664;DHT22;4369;47.842;13.096;2024-01-30T11:58:08;44.40;1.00
8664;DHT22;4369;47.842;13.096;2024-01-30T12:00:35;44.20;1.00
8664;DHT22;4369;47.842;13.096;2024-01-30T12:03:03;43.40;1.00
8664;DHT22;4369;47.842;13.096;2024-01-30T12:05:32;44.90;1.00
8664;DHT22;4369;47.842;13.096;2024-01-30T12:08:00;46.30;1.00
8664;DHT22;4369;47.842;13.096;2024-01-30T12:10:27;46.80;1.00
8664;DHT22;4369;47.842;13.096;2024-01-30T12:12:54;46.00;1.00
8664;DHT22;4369;47.842;13.096;2024-01-30T12:15:22;45.40;1.00
8664;DHT22;4369;47.842;13.096;2024-01-30T12:17:49;47.00;1.00
8664;DHT22;4369;47.842;13.096;2024-01-30T12:20:18;47.90;1.00
8664;DHT22;4369;47.842;13.096;2024-01-30T12:22:48;48.90;1.00
8664;DHT22;4369;47.842;13.096;2024-01-30T12:25:18;49.00;1.00
8664;DHT22;4369;47.842;13.096;2024-01-30T12:27:46;48.40;1.00
8664;DHT22;4369;47.842;13.096;2024-01-30T12:30:16;48.40;1.00
8664;DHT22;4369;47.842;13.096;2024-01-30T12:32:44;47.10;1.00
8664;DHT22;4369;47.842;13.096;2024-01-30T12:35:12;47.10;1.00
8664;DHT22;4369;47.842;13.096;2024-01-30T12:37:40;46.90;1.00
8664;DHT22;4369;47.842;13.096;2024-01-30T12:40:08;45.80;1.00
8664;DHT22;4369;47.842;13.096;2024-01-30T12:42:36;45.40;1.00
8664;DHT22;4369;47.842;13.096;2024-01-30T12:45:05;46.60;1.00
8664;DHT22;4369;47.842;13.096;2024-01-30T12:47:32;46.40;1.00
8664;DHT22;4369;47.842;13.096;2024-01-30T12:49:59;45.90;1.00
8664;DHT22;4369;47.842;13.096;2024-01-30T12:52:26;45.70;1.00
8664;DHT22;4369;47.842;13.096;2024-01-30T12:54:53;44.80;1.00
8664;DHT22;4369;47.842;13.096;2024-01-30T12:57:20;42.60;1.00
8664;DHT22;4369;47.842;13.096;2024-01-30T12:59:49;40.40;1.00
8664;DHT22;4369;47.842;13.096;2024-01-30T13:02:16;38.50;1.00
8664;DHT22;4369;47.842;13.096;2024-01-30T13:04:43;36.60;1.00
8664;DHT22;4369;47.842;13.096;2024-01-30T13:07:10;34.60;1.00
8664;DHT22;4369;47.842;13.096;2024-01-30T13:09:37;33.00;1.00
8664;DHT22;4369;47.842;13.096;2024-01-30T13:12:05;31.20;1.00
8664;DHT22;4369;47.842;13.096;2024-01-30T13:14:32;30.10;1.00
8664;DHT22;4369;47.842;13.096;2024-01-30T13:17:01;29.40;1.00
8664;DHT22;4369;47.842;13.096;2024-01-30T13:19:28;30.40;1.00
8664;DHT22;4369;47.842;13.096;2024-01-30T13:21:55;31.00;1.00
8664;DHT22;4369;47.842;13.096;2024-01-30T13:24:22;31.30;1.00
8664;DHT22;4369;47.842;13.096;2024-01-30T13:26:49;31.10;1.00
8664;DHT22;4369;47.842;13.096;2024-01-30T13:29:16;30.10;1.00
8664;DHT22;4369;47.842;13.096;2024-01-30T13:31:43;29.70;1.00
8664;DHT22;4369;47.842;13.096;2024-01-30T13:34:13;30.00;1.00
8664;DHT22;4369;47.842;13.096;2024-01-30T13:36:40;29.70;1.00
8664;DHT22;4369;47.842;13.096;2024-01-30T13:39:08;30.30;1.00
8664;DHT22;4369;47.842;13.096;2024-01-30T13:41:38;30.90;1.00
8664;DHT22;4369;47.842;13.096;2024-01-30T13:44:05;31.70;1.00
8664;DHT22;4369;47.842;13.096;2024-01-30T13:46:32;31.40;1.00
8664;DHT22;4369;47.842;13.096;2024-01-30T13:48:59;30.40;1.00
8664;DHT22;4369;47.842;13.096;2024-01-30T13:51:28;30.20;1.00
8664;DHT22;4369;47.842;13.096;2024-01-30T13:53:55;30.80;1.00
8664;DHT22;4369;47.842;13.096;2024-01-30T13:56:22;31.40;1.00
8664;DHT22;4369;47.842;13.096;2024-01-30T13:58:49;31.30;1.00
8664;DHT22;4369;47.842;13.096;2024-01-30T14:01:16;32.50;1.00
8664;DHT22;4369;47.842;13.096;2024-01-30T14:03:43;32.30;1.00
8664;DHT22;4369;47.842;13.096;2024-01-30T14:06:10;33.00;1.00
8664;DHT22;4369;47.842;13.096;2024-01-30T14:08:39;32.70;1.00
8664;DHT22;4369;47.842;13.096;2024-01-30T14:11:06;32.60;1.00
8664;DHT22;4369;47.842;13.096;2024-01-30T14:13:33;31.90;1.00
8664;DHT22;4369;47.842;13.096;2024-01-30T14:16:01;31.40;1.00
8664;DHT22;4369;47.842;13.096;2024-01-30T14:18:28;31.00;1.00
8664;DHT22;4369;47.842;13.096;2024-01-30T14:20:55;31.00;1.00
8664;DHT22;4369;47.842;13.096;2024-01-30T14:23:23;30.60;1.00
8664;DHT22;4369;47.842;13.096;2024-01-30T14:25:51;31.00;1.00
8664;DHT22;4369;47.842;13.096;2024-01-30T14:28:18;30.90;1.00
8664;DHT22;4369;47.842;13.096;2024-01-30T14:30:45;30.80;1.00
8664;DHT22;4369;47.842;13.096;2024-01-30T14:33:12;30.50;1.00
8664;DHT22;4369;47.842;13.096;2024-01-30T14:35:39;30.30;1.00
8664;DHT22;4369;47.842;13.096;2024-01-30T14:38:06;29.30;1.00
8664;DHT22;4369;47.842;13.096;2024-01-30T14:40:34;29.20;1.00
8664;DHT22;4369;47.842;13.096;2024-01-30T14:43:02;28.90;1.00
8664;DHT22;4369;47.842;13.096;2024-01-30T14:45:30;28.30;1.00
8664;DHT22;4369;47.842;13.096;2024-01-30T14:47:58;27.60;1.00
8664;DHT22;4369;47.842;13.096;2024-01-30T14:50:25;27.00;1.00
8664;DHT22;4369;47.842;13.096;2024-01-30T14:52:53;25.90;1.00
8664;DHT22;4369;47.842;13.096;2024-01-30T14:55:20;24.80;1.00
8664;DHT22;4369;47.842;13.096;2024-01-30T14:57:48;24.00;1.00
8664;DHT22;4369;47.842;13.096;2024-01-30T15:00:17;22.90;1.00
8664;DHT22;4369;47.842;13.096;2024-01-30T15:02:44;21.90;1.00
8664;DHT22;4369;47.842;13.096;2024-01-30T15:05:12;20.30;1.00
8664;DHT22;4369;47.842;13.096;2024-01-30T15:07:39;19.00;1.00
8664;DHT22;4369;47.842;13.096;2024-01-30T15:10:07;18.10;1.00
8664;DHT22;4369;47.842;13.096;2024-01-30T15:12:35;17.60;1.00
8664;DHT22;4369;47.842;13.096;2024-01-30T15:15:02;17.50;1.00
8664;DHT22;4369;47.842;13.096;2024-01-30T15:17:31;17.00;1.00
8664;DHT22;4369;47.842;13.096;2024-01-30T15:19:58;16.60;1.00
8664;DHT22;4369;47.842;13.096;2024-01-30T15:22:26;16.20;1.00
8664;DHT22;4369;47.842;13.096;2024-01-30T15:24:52;15.90;1.00
8664;DHT22;4369;47.842;13.096;2024-01-30T15:27:19;15.50;1.00
8664;DHT22;4369;47.842;13.096;2024-01-30T15:29:47;15.20;1.00
8664;DHT22;4369;47.842;13.096;2024-01-30T15:32:14;14.80;1.00
8664;DHT22;4369;47.842;13.096;2024-01-30T15:34:42;14.30;1.00
8664;DHT22;4369;47.842;13.096;2024-01-30T15:37:10;14.00;1.00
8664;DHT22;4369;47.842;13.096;2024-01-30T15:39:37;13.70;1.00
8664;DHT22;4369;47.842;13.096;2024-01-30T15:42:04;13.40;1.00
8664;DHT22;4369;47.842;13.096;2024-01-30T15:44:31;13.10;1.00
8664;DHT22;4369;47.842;13.096;2024-01-30T15:46:58;12.50;1.00
8664;DHT22;4369;47.842;13.096;2024-01-30T15:49:25;12.50;1.00
8664;DHT22;4369;47.842;13.096;2024-01-30T15:51:54;12.20;1.00
8664;DHT22;4369;47.842;13.096;2024-01-30T15:54:20;11.90;1.00
8664;DHT22;4369;47.842;13.096;2024-01-30T15:56:48;11.80;1.00
8664;DHT22;4369;47.842;13.096;2024-01-30T15:59:15;11.60;1.00
8664;DHT22;4369;47.842;13.096;2024-01-30T16:01:42;11.20;1.00
8664;DHT22;4369;47.842;13.096;2024-01-30T16:04:13;10.90;1.00
8664;DHT22;4369;47.842;13.096;2024-01-30T16:06:40;10.60;1.00
8664;DHT22;4369;47.842;13.096;2024-01-30T16:09:09;10.40;1.00